createdAt,value
2019-04-30T00:00:50.999Z,23.00
2019-04-30T00:03:25.070Z,23.10
2019-04-30T00:05:55.558Z,25.25
2019-04-30T00:08:25.582Z,23.67
2019-04-30T00:10:52.731Z,23.67
2019-04-30T00:13:21.026Z,25.48
2019-04-30T00:15:52.705Z,24.15
2019-04-30T00:18:17.362Z,27.13
2019-04-30T00:20:47.092Z,25.57
2019-04-30T00:23:17.957Z,26.07
2019-04-30T00:25:46.424Z,24.52
2019-04-30T00:28:15.526Z,24.32
2019-04-30T00:30:45.062Z,24.18
2019-04-30T00:33:15.327Z,25.25
2019-04-30T00:35:45.407Z,25.35
2019-04-30T00:38:15.111Z,24.15
2019-04-30T00:40:45.062Z,26.25
2019-04-30T00:43:15.472Z,24.60
2019-04-30T00:45:44.888Z,26.35
2019-04-30T00:48:19.347Z,25.10
2019-04-30T00:50:42.973Z,25.75
2019-04-30T00:53:12.550Z,24.70
2019-04-30T00:55:44.955Z,27.05
2019-04-30T00:58:11.135Z,26.57
2019-04-30T01:00:59.758Z,28.07
2019-04-30T01:03:39.402Z,27.20
2019-04-30T01:06:07.324Z,24.92
2019-04-30T01:08:35.935Z,25.32
2019-04-30T01:11:09.349Z,25.82
2019-04-30T01:13:34.769Z,26.30
2019-04-30T01:16:02.309Z,27.48
2019-04-30T01:18:32.311Z,25.43
2019-04-30T01:21:02.895Z,26.93
2019-04-30T01:23:30.191Z,26.42
2019-04-30T01:25:58.969Z,26.80
2019-04-30T01:28:28.395Z,27.62
2019-04-30T01:31:01.822Z,26.85
2019-04-30T01:33:34.584Z,26.40
2019-04-30T01:35:59.914Z,25.92
2019-04-30T01:38:29.852Z,27.10
2019-04-30T01:40:59.588Z,27.60
2019-04-30T01:43:33.517Z,26.55
2019-04-30T01:46:01.997Z,26.35
2019-04-30T01:48:29.161Z,26.27
2019-04-30T01:50:58.637Z,27.35
2019-04-30T01:53:28.557Z,26.55
2019-04-30T01:56:14.157Z,26.30
2019-04-30T01:58:56.277Z,27.00
2019-04-30T02:01:28.602Z,26.00
2019-04-30T02:03:58.569Z,27.30
2019-04-30T02:06:26.958Z,26.55
2019-04-30T02:08:55.114Z,28.00
2019-04-30T02:11:23.865Z,26.82
2019-04-30T02:13:52.254Z,27.50
2019-04-30T02:16:21.151Z,27.60
2019-04-30T02:18:49.595Z,25.45
2019-04-30T02:21:19.504Z,27.17
2019-04-30T02:23:49.361Z,28.12
2019-04-30T02:26:18.732Z,27.48
2019-04-30T02:28:49.379Z,28.15
2019-04-30T02:31:22.754Z,28.80
2019-04-30T02:33:53.158Z,29.00
2019-04-30T02:36:35.714Z,29.07
2019-04-30T02:39:11.155Z,29.67
2019-04-30T02:41:41.139Z,28.83
2019-04-30T02:44:09.657Z,28.83
2019-04-30T02:46:40.759Z,27.87
2019-04-30T02:49:11.002Z,28.45
2019-04-30T02:51:43.223Z,28.30
2019-04-30T02:54:29.765Z,28.35
2019-04-30T02:57:11.686Z,27.20
2019-04-30T03:00:00.150Z,26.75
2019-04-30T03:02:30.044Z,28.42
2019-04-30T03:05:04.295Z,27.42
2019-04-30T03:07:33.779Z,27.35
2019-04-30T03:10:02.708Z,27.98
2019-04-30T03:12:33.758Z,27.13
2019-04-30T03:15:02.111Z,28.27
2019-04-30T03:17:39.450Z,28.62
2019-04-30T03:20:36.013Z,28.12
2019-04-30T03:23:03.569Z,27.85
2019-04-30T03:25:31.561Z,29.20
2019-04-30T03:28:00.510Z,27.17
2019-04-30T03:30:31.965Z,27.40
2019-04-30T03:33:02.615Z,27.17
2019-04-30T03:35:32.603Z,27.13
2019-04-30T03:38:01.743Z,27.48
2019-04-30T03:40:30.485Z,27.50
2019-04-30T03:43:02.684Z,26.93
2019-04-30T03:45:30.207Z,27.40
2019-04-30T03:50:56.889Z,26.62
2019-04-30T03:53:23.162Z,27.25
2019-04-30T03:55:50.710Z,26.05
2019-04-30T03:58:21.296Z,27.77
2019-04-30T04:00:56.448Z,26.42
2019-04-30T04:03:25.358Z,27.10
2019-04-30T04:06:12.370Z,26.68
2019-04-30T04:08:45.999Z,27.62
2019-04-30T04:11:21.323Z,26.77
2019-04-30T04:13:49.578Z,27.77
2019-04-30T04:16:19.525Z,26.77
2019-04-30T04:18:49.798Z,27.82
2019-04-30T04:21:20.659Z,26.77
2019-04-30T04:23:49.451Z,26.30
2019-04-30T04:26:20.293Z,25.27
2019-04-30T04:28:49.654Z,25.55
2019-04-30T04:31:19.409Z,27.13
2019-04-30T04:33:49.542Z,26.35
2019-04-30T04:36:20.083Z,26.33
2019-04-30T04:38:50.643Z,26.65
2019-04-30T04:41:19.790Z,26.55
2019-04-30T04:43:50.069Z,25.32
2019-04-30T04:46:16.143Z,25.55
2019-04-30T04:48:43.215Z,25.95
2019-04-30T04:51:27.235Z,23.83
2019-04-30T04:53:40.189Z,24.60
2019-04-30T04:56:10.111Z,24.80
2019-04-30T04:58:40.224Z,25.60
2019-04-30T05:01:08.682Z,25.55
2019-04-30T05:03:39.898Z,25.37
2019-04-30T05:06:11.417Z,25.40
2019-04-30T05:08:39.618Z,24.75
2019-04-30T05:11:09.536Z,24.92
2019-04-30T05:13:40.954Z,25.72
2019-04-30T05:16:09.333Z,26.33
2019-04-30T05:18:39.169Z,26.70
2019-04-30T05:21:08.846Z,25.37
2019-04-30T05:23:36.256Z,25.95
2019-04-30T05:26:03.449Z,26.45
2019-04-30T05:28:30.535Z,25.62
2019-04-30T05:30:59.548Z,24.95
2019-04-30T05:33:28.630Z,23.25
2019-04-30T05:35:59.255Z,25.02
2019-04-30T05:38:29.055Z,25.68
2019-04-30T05:40:59.423Z,25.70
2019-04-30T05:43:28.946Z,25.62
2019-04-30T05:45:58.686Z,22.60
2019-04-30T05:48:31.494Z,22.87
2019-04-30T05:51:00.004Z,24.27
2019-04-30T05:53:28.773Z,22.30
2019-04-30T05:55:59.179Z,21.42
2019-04-30T05:58:29.972Z,23.07
2019-04-30T06:00:59.552Z,20.45
2019-04-30T06:03:33.299Z,23.20
2019-04-30T06:06:00.664Z,23.20
2019-04-30T06:08:39.166Z,22.32
2019-04-30T06:11:19.265Z,23.10
2019-04-30T06:14:19.614Z,22.95
2019-04-30T06:17:04.795Z,23.40
2019-04-30T06:19:35.469Z,22.45
2019-04-30T06:22:07.543Z,25.62
2019-04-30T06:24:34.769Z,26.82
2019-04-30T06:27:03.487Z,27.17
2019-04-30T06:29:31.372Z,25.20
2019-04-30T06:31:58.760Z,25.10
2019-04-30T06:34:26.121Z,25.43
2019-04-30T06:36:54.225Z,24.60
2019-04-30T06:39:23.789Z,23.83
2019-04-30T06:42:04.049Z,24.87
2019-04-30T06:44:34.528Z,23.00
2019-04-30T06:46:53.601Z,24.15
2019-04-30T06:49:24.615Z,23.15
2019-04-30T06:51:53.405Z,22.55
2019-04-30T06:54:21.593Z,24.05
2019-04-30T06:56:49.651Z,22.37
2019-04-30T06:59:17.642Z,23.47
2019-04-30T07:01:44.906Z,22.02
2019-04-30T07:04:12.071Z,21.68
2019-04-30T07:06:44.012Z,21.68
2019-04-30T07:09:26.765Z,21.65
2019-04-30T07:12:25.531Z,19.95
2019-04-30T07:14:45.202Z,20.25
2019-04-30T07:17:14.751Z,19.90
2019-04-30T07:19:53.204Z,22.02
2019-04-30T07:22:13.715Z,27.00
2019-04-30T07:24:43.647Z,20.70
2019-04-30T07:27:12.243Z,21.20
2019-04-30T07:29:39.689Z,20.13
2019-04-30T07:32:09.451Z,20.73
2019-04-30T07:34:39.482Z,20.97
2019-04-30T07:37:16.304Z,20.67
2019-04-30T07:39:35.414Z,23.07
2019-04-30T07:42:03.913Z,21.03
2019-04-30T07:44:36.451Z,22.57
2019-04-30T07:47:09.662Z,23.10
2019-04-30T07:49:49.921Z,22.07
2019-04-30T07:52:11.075Z,23.80
2019-04-30T07:54:39.635Z,22.63
2019-04-30T07:57:09.626Z,22.73
2019-04-30T07:59:39.539Z,22.73
2019-04-30T08:02:14.341Z,22.53
2019-04-30T08:04:51.391Z,23.97
2019-04-30T08:07:20.136Z,25.00
2019-04-30T08:09:49.350Z,26.60
2019-04-30T08:12:28.212Z,26.20
2019-04-30T08:14:52.679Z,25.67
2019-04-30T08:17:21.601Z,26.10
2019-04-30T08:19:50.082Z,28.67
2019-04-30T08:22:19.669Z,27.80
2019-04-30T08:24:53.079Z,28.40
2019-04-30T08:27:21.321Z,27.97
2019-04-30T08:29:49.871Z,27.50
2019-04-30T08:32:19.110Z,27.57
2019-04-30T08:34:47.015Z,29.10
2019-04-30T08:37:20.194Z,34.13
2019-04-30T08:39:49.646Z,31.07
2019-04-30T08:42:29.006Z,30.40
2019-04-30T08:44:48.952Z,28.70
2019-04-30T08:47:21.310Z,31.87
2019-04-30T08:49:50.861Z,32.67
2019-04-30T08:52:19.745Z,28.27
2019-04-30T08:54:49.620Z,23.90
2019-04-30T08:57:22.814Z,25.03
2019-04-30T08:59:51.264Z,24.70
2019-04-30T09:02:19.799Z,23.70
2019-04-30T09:04:50.690Z,22.00
2019-04-30T09:07:19.662Z,23.10
2019-04-30T09:09:51.358Z,22.73
2019-04-30T09:12:19.564Z,22.07
2019-04-30T09:14:49.030Z,23.03
2019-04-30T09:17:19.904Z,22.90
2019-04-30T09:19:49.133Z,21.70
2019-04-30T09:22:19.538Z,23.10
2019-04-30T09:24:49.760Z,21.70
2019-04-30T09:27:19.590Z,20.27
2019-04-30T09:29:52.314Z,22.20
2019-04-30T09:32:21.838Z,21.63
2019-04-30T09:34:49.059Z,21.20
2019-04-30T09:37:20.396Z,20.60
2019-04-30T09:39:49.265Z,21.70
2019-04-30T09:42:19.514Z,20.07
2019-04-30T09:44:49.052Z,20.73
2019-04-30T09:47:16.191Z,20.80
2019-04-30T09:49:44.806Z,18.80
2019-04-30T09:52:13.744Z,20.03
2019-04-30T09:54:44.412Z,22.57
2019-04-30T09:57:13.087Z,21.60
2019-04-30T09:59:41.421Z,21.07
2019-04-30T10:02:10.162Z,18.80
2019-04-30T10:04:39.782Z,19.47
2019-04-30T10:07:11.539Z,19.30
2019-04-30T10:09:38.991Z,19.27
2019-04-30T10:12:12.963Z,19.43
2019-04-30T10:14:41.326Z,17.30
2019-04-30T10:17:24.033Z,17.57
2019-04-30T10:19:52.122Z,17.47
2019-04-30T10:22:20.422Z,16.80
2019-04-30T10:24:49.452Z,18.83
2019-04-30T10:27:29.214Z,17.37
2019-04-30T10:29:59.252Z,17.20
2019-04-30T10:32:29.978Z,18.97
2019-04-30T10:34:57.895Z,17.27
2019-04-30T10:37:28.625Z,17.13
2019-04-30T10:39:55.882Z,17.13
2019-04-30T10:42:23.087Z,17.00
2019-04-30T10:44:50.278Z,15.97
2019-04-30T10:47:19.305Z,17.17
2019-04-30T10:49:52.512Z,16.70
2019-04-30T10:52:21.308Z,16.80
2019-04-30T10:54:49.767Z,16.10
2019-04-30T10:57:18.488Z,16.63
2019-04-30T10:59:48.691Z,16.40
2019-04-30T11:02:21.516Z,15.77
2019-04-30T11:04:49.820Z,16.90
2019-04-30T11:07:18.676Z,16.43
2019-04-30T11:09:45.970Z,17.17
2019-04-30T11:12:13.395Z,16.30
2019-04-30T11:14:45.878Z,15.23
2019-04-30T11:17:13.224Z,15.13
2019-04-30T11:19:42.091Z,14.30
2019-04-30T11:22:10.969Z,16.70
2019-04-30T11:24:54.075Z,16.07
2019-04-30T11:27:15.517Z,16.87
2019-04-30T11:29:44.211Z,15.17
2019-04-30T11:32:19.316Z,14.53
2019-04-30T11:34:52.589Z,15.50
2019-04-30T11:37:21.020Z,15.57
2019-04-30T11:39:49.228Z,14.47
2019-04-30T11:42:16.499Z,13.27
2019-04-30T11:44:43.606Z,15.03
2019-04-30T11:47:27.082Z,13.63
2019-04-30T11:49:54.258Z,14.63
2019-04-30T11:52:23.411Z,15.10
2019-04-30T11:54:54.197Z,12.83
2019-04-30T11:57:21.914Z,13.60
2019-04-30T11:59:50.346Z,12.70
2019-04-30T12:02:53.709Z,12.77
2019-04-30T12:05:22.176Z,13.37
2019-04-30T12:07:59.749Z,13.77
2019-04-30T12:10:48.621Z,13.07
2019-04-30T12:13:34.029Z,14.30
2019-04-30T12:16:02.598Z,13.93
2019-04-30T12:18:35.673Z,14.00
2019-04-30T12:21:04.130Z,13.07
2019-04-30T12:23:32.871Z,13.20
2019-04-30T12:26:02.800Z,13.80
2019-04-30T12:28:30.743Z,13.57
2019-04-30T12:30:59.939Z,13.77
2019-04-30T12:33:26.990Z,13.20
2019-04-30T12:35:54.330Z,12.90
2019-04-30T12:38:22.629Z,13.03
2019-04-30T12:40:51.102Z,14.13
2019-04-30T12:46:02.747Z,12.37
2019-04-30T12:48:32.434Z,13.70
2019-04-30T12:51:22.962Z,12.60
2019-04-30T12:54:07.190Z,11.40
2019-04-30T12:56:51.762Z,11.27
2019-04-30T12:59:23.638Z,11.50
2019-04-30T13:01:52.090Z,12.80
2019-04-30T13:04:19.646Z,12.77
2019-04-30T13:06:48.601Z,12.43
2019-04-30T13:09:20.281Z,10.70
2019-04-30T13:11:54.051Z,10.43
2019-04-30T13:14:23.316Z,11.30
2019-04-30T13:16:52.169Z,11.40
2019-04-30T13:19:20.551Z,11.50
2019-04-30T13:21:50.504Z,12.60
2019-04-30T13:24:18.841Z,12.30
2019-04-30T13:26:49.484Z,11.63
2019-04-30T13:29:32.393Z,12.37
2019-04-30T13:32:00.595Z,11.43
2019-04-30T13:34:50.811Z,10.00
2019-04-30T13:37:19.194Z,11.20
2019-04-30T13:39:59.826Z,11.90
2019-04-30T13:42:40.278Z,12.23
2019-04-30T13:45:07.955Z,11.10
2019-04-30T13:47:36.054Z,10.50
2019-04-30T13:50:05.411Z,10.60
2019-04-30T13:52:39.432Z,10.40
2019-04-30T13:55:10.775Z,10.70
2019-04-30T13:57:37.751Z,10.80
2019-04-30T14:00:08.692Z,10.13
2019-04-30T14:02:50.202Z,9.73
2019-04-30T14:05:18.839Z,10.53
2019-04-30T14:08:07.027Z,10.87
2019-04-30T14:10:39.294Z,9.90
2019-04-30T14:13:08.326Z,9.37
2019-04-30T14:15:36.230Z,10.30
2019-04-30T14:18:05.483Z,9.80
2019-04-30T14:20:34.078Z,10.43
2019-04-30T14:23:02.329Z,9.80
2019-04-30T14:25:31.664Z,10.27
2019-04-30T14:27:59.816Z,9.83
2019-04-30T14:30:29.274Z,9.10
2019-04-30T14:32:59.201Z,10.20
2019-04-30T14:35:33.530Z,10.53
2019-04-30T14:38:01.999Z,10.77
2019-04-30T14:40:30.959Z,10.50
2019-04-30T14:43:20.799Z,11.47
2019-04-30T14:46:10.034Z,9.00
2019-04-30T14:48:44.987Z,10.70
2019-04-30T14:51:13.888Z,10.00
2019-04-30T14:54:05.395Z,10.37
2019-04-30T14:57:02.642Z,10.13
2019-04-30T14:59:49.431Z,9.93
2019-04-30T15:02:23.631Z,10.83
2019-04-30T15:04:51.841Z,10.97
2019-04-30T15:07:23.368Z,11.33
2019-04-30T15:09:50.316Z,9.83
2019-04-30T15:12:17.401Z,10.87
2019-04-30T15:14:44.562Z,11.03
2019-04-30T15:17:11.730Z,10.83
2019-04-30T15:19:38.983Z,10.63
2019-04-30T15:22:11.906Z,10.87
2019-04-30T15:24:40.105Z,9.70
2019-04-30T15:27:09.253Z,10.37
2019-04-30T15:29:39.218Z,10.60
2019-04-30T15:32:08.646Z,10.57
2019-04-30T15:34:42.471Z,9.80
2019-04-30T15:37:19.049Z,11.33
2019-04-30T15:39:43.182Z,10.27
2019-04-30T15:42:11.458Z,10.23
2019-04-30T15:44:42.657Z,10.80
2019-04-30T15:47:11.410Z,12.23
2019-04-30T15:49:39.751Z,11.27
2019-04-30T15:52:08.986Z,10.90
2019-04-30T15:54:39.213Z,12.20
2019-04-30T15:57:08.896Z,11.83
2019-04-30T15:59:42.315Z,12.10
2019-04-30T16:02:22.468Z,11.83
2019-04-30T16:05:09.632Z,11.57
2019-04-30T16:07:46.832Z,10.93
2019-04-30T16:10:39.733Z,11.97
2019-04-30T16:13:12.611Z,11.80
2019-04-30T16:15:39.666Z,13.63
2019-04-30T16:18:07.264Z,12.03
2019-04-30T16:20:35.838Z,11.60
2019-04-30T16:23:04.672Z,12.27
2019-04-30T16:25:32.738Z,11.83
2019-04-30T16:28:01.342Z,12.40
2019-04-30T16:30:29.844Z,12.50
2019-04-30T16:32:59.653Z,12.93
2019-04-30T16:35:29.523Z,14.13
2019-04-30T16:38:01.651Z,14.57
2019-04-30T16:40:30.330Z,15.00
2019-04-30T16:42:58.496Z,14.23
2019-04-30T16:45:29.306Z,15.40
2019-04-30T16:47:56.632Z,15.03
2019-04-30T16:50:23.978Z,14.20
2019-04-30T16:52:51.782Z,15.87
2019-04-30T16:55:19.392Z,15.70
2019-04-30T16:57:53.129Z,15.83
2019-04-30T17:00:22.163Z,15.60
2019-04-30T17:02:55.702Z,14.83
2019-04-30T17:05:42.406Z,15.87
2019-04-30T17:08:19.239Z,15.90
2019-04-30T17:11:00.972Z,16.50
2019-04-30T17:13:34.998Z,16.83
2019-04-30T17:16:10.951Z,16.37
2019-04-30T17:18:38.772Z,18.40
2019-04-30T17:21:06.967Z,18.17
2019-04-30T17:23:37.270Z,18.47
2019-04-30T17:26:07.016Z,18.13
2019-04-30T17:28:35.854Z,17.67
2019-04-30T17:31:04.699Z,18.40
2019-04-30T17:33:38.407Z,17.37
2019-04-30T17:36:08.716Z,19.00
2019-04-30T17:38:37.107Z,17.50
2019-04-30T17:41:04.565Z,18.73
2019-04-30T17:43:32.031Z,17.90
2019-04-30T17:46:00.605Z,18.60
2019-04-30T17:48:29.349Z,17.80
2019-04-30T17:50:59.462Z,17.50
2019-04-30T17:53:29.313Z,18.40
2019-04-30T17:56:02.434Z,18.27
2019-04-30T17:58:31.420Z,18.67
2019-04-30T18:01:01.087Z,18.37
2019-04-30T18:03:30.414Z,19.03
2019-04-30T18:05:59.670Z,17.77
2019-04-30T18:08:26.840Z,18.00
2019-04-30T18:10:55.220Z,17.53
2019-04-30T18:13:23.675Z,19.33
2019-04-30T18:15:52.039Z,17.73
2019-04-30T18:18:40.210Z,17.63
2019-04-30T18:21:31.242Z,18.13
2019-04-30T18:24:19.522Z,16.60
2019-04-30T18:27:07.519Z,16.10
2019-04-30T18:29:35.922Z,16.50
2019-04-30T18:32:04.904Z,16.53
2019-04-30T18:34:32.150Z,17.43
2019-04-30T18:36:59.450Z,17.00
2019-04-30T18:39:28.961Z,16.50
2019-04-30T18:41:56.402Z,16.50
2019-04-30T18:44:24.689Z,16.83
2019-04-30T18:46:54.612Z,16.67
2019-04-30T18:49:22.858Z,17.60
2019-04-30T18:51:54.143Z,15.37
2019-04-30T18:54:22.794Z,17.40
2019-04-30T18:56:51.036Z,16.27
2019-04-30T18:59:19.696Z,16.60
2019-04-30T19:01:52.602Z,16.97
2019-04-30T19:04:19.946Z,16.97
2019-04-30T19:06:47.163Z,16.53
2019-04-30T19:09:43.884Z,16.30
2019-04-30T19:12:42.478Z,15.00
2019-04-30T19:15:59.055Z,15.87
2019-04-30T19:18:23.980Z,15.20
2019-04-30T19:20:54.413Z,15.30
2019-04-30T19:23:23.146Z,15.20
2019-04-30T19:25:50.471Z,15.17
2019-04-30T19:28:28.575Z,14.87
2019-04-30T19:30:58.847Z,15.30
2019-04-30T19:33:30.788Z,15.80
2019-04-30T19:35:58.724Z,15.43
2019-04-30T19:38:27.301Z,16.30
2019-04-30T19:40:55.575Z,15.10
2019-04-30T19:43:24.590Z,15.53
2019-04-30T19:45:53.050Z,16.30
2019-04-30T19:48:21.379Z,15.83
2019-04-30T19:50:49.342Z,16.00
2019-04-30T19:53:21.374Z,16.40
2019-04-30T19:55:46.673Z,16.77
2019-04-30T19:58:25.402Z,15.57
2019-04-30T20:00:44.063Z,15.50
2019-04-30T20:03:12.323Z,15.50
2019-04-30T20:05:41.322Z,15.90
2019-04-30T20:08:11.082Z,16.10
2019-04-30T20:10:39.970Z,15.83
2019-04-30T20:13:08.301Z,16.50
2019-04-30T20:15:36.449Z,16.40
2019-04-30T20:18:06.131Z,15.60
2019-04-30T20:20:34.909Z,16.87
2019-04-30T20:23:03.472Z,16.20
2019-04-30T20:25:32.651Z,16.43
2019-04-30T20:27:59.974Z,17.90
2019-04-30T20:30:26.941Z,15.90
2019-04-30T20:32:56.608Z,17.73
2019-04-30T20:35:24.017Z,16.50
2019-04-30T20:38:09.830Z,15.40
2019-04-30T20:40:43.747Z,15.70
2019-04-30T20:43:10.142Z,16.67
2019-04-30T20:45:38.598Z,17.60
2019-04-30T20:48:08.957Z,16.60
2019-04-30T20:50:37.478Z,17.00
2019-04-30T20:53:06.227Z,15.87
2019-04-30T20:55:34.797Z,17.33
2019-04-30T20:58:03.430Z,16.73
2019-04-30T21:00:33.838Z,16.83
2019-04-30T21:03:01.473Z,18.90
2019-04-30T21:05:29.303Z,18.13
2019-04-30T21:07:56.874Z,17.03
2019-04-30T21:10:24.054Z,16.60
2019-04-30T21:12:52.966Z,17.30
2019-04-30T21:15:21.706Z,16.77
2019-04-30T21:17:50.490Z,18.07
2019-04-30T21:20:19.476Z,17.47
2019-04-30T21:22:49.444Z,16.63
2019-04-30T21:25:18.780Z,15.83
2019-04-30T21:27:49.879Z,17.63
2019-04-30T21:30:19.271Z,16.73
2019-04-30T21:33:00.777Z,17.67
2019-04-30T21:35:35.681Z,16.30
2019-04-30T21:38:04.839Z,18.10
2019-04-30T21:40:36.624Z,18.47
2019-04-30T21:43:04.618Z,18.60
2019-04-30T21:45:33.501Z,18.33
2019-04-30T21:48:02.513Z,16.40
2019-04-30T21:50:34.476Z,18.47
2019-04-30T21:53:02.432Z,16.60
2019-04-30T21:55:30.634Z,19.67
2019-04-30T21:57:59.469Z,19.23
2019-04-30T22:00:45.486Z,19.37
2019-04-30T22:03:15.397Z,20.37
2019-04-30T22:05:42.944Z,18.12
2019-04-30T22:08:10.318Z,19.12
2019-04-30T22:10:37.290Z,19.23
2019-04-30T22:13:04.706Z,19.33
2019-04-30T22:15:32.650Z,18.73
2019-04-30T22:18:01.570Z,19.30
2019-04-30T22:20:30.267Z,19.57
2019-04-30T22:22:58.992Z,18.10
2019-04-30T22:25:29.201Z,18.65
2019-04-30T22:28:00.362Z,18.60
2019-04-30T22:30:28.590Z,18.57
2019-04-30T22:32:59.406Z,18.53
2019-04-30T22:35:45.697Z,20.80
2019-04-30T22:38:19.050Z,20.45
2019-04-30T22:40:48.849Z,19.73
2019-04-30T22:43:17.574Z,18.75
2019-04-30T22:45:50.834Z,20.20
2019-04-30T22:48:19.502Z,20.40
2019-04-30T22:50:48.503Z,22.55
2019-04-30T22:53:16.928Z,21.80
2019-04-30T22:55:45.422Z,20.25
2019-04-30T22:58:14.491Z,20.77
2019-04-30T23:00:44.282Z,20.32
2019-04-30T23:03:15.411Z,20.88
2019-04-30T23:05:43.690Z,20.02
2019-04-30T23:08:11.555Z,19.67
2019-04-30T23:10:38.830Z,21.12
2019-04-30T23:13:06.470Z,20.68
2019-04-30T23:15:34.042Z,22.55
2019-04-30T23:18:02.059Z,20.97
2019-04-30T23:20:30.547Z,20.70
2019-04-30T23:23:02.118Z,21.37
2019-04-30T23:25:30.610Z,22.70
2019-04-30T23:27:58.744Z,23.02
2019-04-30T23:30:27.363Z,23.90
2019-04-30T23:32:55.488Z,22.22
2019-04-30T23:35:23.726Z,23.32
2019-04-30T23:37:51.855Z,22.07
2019-04-30T23:40:27.430Z,21.48
2019-04-30T23:42:54.596Z,21.15
2019-04-30T23:45:22.010Z,22.10
2019-04-30T23:47:49.278Z,23.65
2019-04-30T23:50:17.555Z,22.35
2019-04-30T23:52:45.921Z,22.40
2019-04-30T23:55:14.198Z,22.80
2019-04-30T23:57:42.662Z,23.12
